createdAt,value
2022-08-04T00:00:30.064Z,23.03
2022-08-04T00:01:45.728Z,23.03
2022-08-04T00:02:48.631Z,23.03
2022-08-04T00:04:13.205Z,23.03
2022-08-04T00:05:34.581Z,23.02
2022-08-04T00:06:46.022Z,23.01
2022-08-04T00:07:57.028Z,23.01
2022-08-04T00:09:03.157Z,23.01
2022-08-04T00:10:09.210Z,23.00
2022-08-04T00:11:15.743Z,22.99
2022-08-04T00:12:22.276Z,22.98
2022-08-04T00:13:37.723Z,22.96
2022-08-04T00:15:01.336Z,22.94
2022-08-04T00:16:08.726Z,22.93
2022-08-04T00:17:11.973Z,22.93
2022-08-04T00:18:15.379Z,22.92
2022-08-04T00:19:21.641Z,22.91
2022-08-04T00:20:24.826Z,22.91
2022-08-04T00:21:28.146Z,22.90
2022-08-04T00:22:31.765Z,22.90
2022-08-04T00:24:11.607Z,22.90
2022-08-04T00:25:02.407Z,22.89
2022-08-04T00:26:05.442Z,22.88
2022-08-04T00:27:08.766Z,22.86
2022-08-04T00:28:12.373Z,22.85
2022-08-04T00:29:15.607Z,22.85
2022-08-04T00:30:18.499Z,22.84
2022-08-04T00:31:53.698Z,22.83
2022-08-04T00:32:45.543Z,22.81
2022-08-04T00:33:48.953Z,22.81
2022-08-04T00:34:52.558Z,22.80
2022-08-04T00:35:57.068Z,22.80
2022-08-04T00:37:00.048Z,22.79
2022-08-04T00:38:03.434Z,22.80
2022-08-04T00:39:07.338Z,22.79
2022-08-04T00:40:23.907Z,22.79
2022-08-04T00:41:26.793Z,22.77
2022-08-04T00:42:58.261Z,22.77
2022-08-04T00:44:05.302Z,22.75
2022-08-04T00:45:10.971Z,22.75
2022-08-04T00:46:19.722Z,22.74
2022-08-04T00:47:34.375Z,22.74
2022-08-04T00:48:47.734Z,22.73
2022-08-04T00:49:59.739Z,22.72
2022-08-04T00:51:21.203Z,22.73
2022-08-04T00:52:32.507Z,22.73
2022-08-04T00:53:49.859Z,22.73
2022-08-04T00:55:07.084Z,22.74
2022-08-04T00:56:11.899Z,22.75
2022-08-04T00:57:34.105Z,22.76
2022-08-04T00:58:44.224Z,22.76
2022-08-04T01:00:08.942Z,22.77
2022-08-04T01:01:30.234Z,22.77
2022-08-04T01:02:37.073Z,22.78
2022-08-04T01:03:50.275Z,22.78
2022-08-04T01:05:04.423Z,22.78
2022-08-04T01:06:30.838Z,22.78
2022-08-04T01:07:39.736Z,22.78
2022-08-04T01:08:49.598Z,22.78
2022-08-04T01:10:08.970Z,22.77
2022-08-04T01:11:24.437Z,22.76
2022-08-04T01:12:39.467Z,22.76
2022-08-04T01:13:48.673Z,22.76
2022-08-04T01:14:58.018Z,22.76
2022-08-04T01:16:03.188Z,22.77
2022-08-04T01:17:15.418Z,22.78
2022-08-04T01:18:23.287Z,22.78
2022-08-04T01:19:29.237Z,22.80
2022-08-04T01:20:35.303Z,22.83
2022-08-04T01:21:43.062Z,22.84
2022-08-04T01:23:01.779Z,22.86
2022-08-04T01:24:23.109Z,22.87
2022-08-04T01:25:49.418Z,22.89
2022-08-04T01:26:57.778Z,22.90
2022-08-04T01:28:03.881Z,22.91
2022-08-04T01:29:10.976Z,22.93
2022-08-04T01:30:17.333Z,22.95
2022-08-04T01:32:57.364Z,22.96
2022-08-04T01:34:04.853Z,22.97
2022-08-04T01:35:11.098Z,22.98
2022-08-04T01:36:24.933Z,22.98
2022-08-04T01:37:46.630Z,22.98
2022-08-04T01:38:49.644Z,22.98
2022-08-04T01:40:12.831Z,22.98
2022-08-04T01:41:19.232Z,22.98
2022-08-04T01:42:36.317Z,22.98
2022-08-04T01:43:43.565Z,22.97
2022-08-04T01:44:47.982Z,22.96
2022-08-04T01:45:52.133Z,22.95
2022-08-04T01:46:55.475Z,22.94
2022-08-04T01:47:58.456Z,22.93
2022-08-04T01:49:02.936Z,22.93
2022-08-04T01:50:08.291Z,22.93
2022-08-04T01:51:11.768Z,22.92
2022-08-04T01:52:16.510Z,22.91
2022-08-04T01:53:24.526Z,22.90
2022-08-04T01:54:28.474Z,22.87
2022-08-04T01:55:55.218Z,22.84
2022-08-04T01:56:55.520Z,22.82
2022-08-04T01:58:01.040Z,22.80
2022-08-04T01:59:04.065Z,22.79
2022-08-04T02:00:07.537Z,22.77
2022-08-04T02:01:13.233Z,22.76
2022-08-04T02:02:16.424Z,22.74
2022-08-04T02:03:20.382Z,22.73
2022-08-04T02:04:23.869Z,22.71
2022-08-04T02:06:03.113Z,22.69
2022-08-04T02:07:08.690Z,22.66
2022-08-04T02:08:33.290Z,22.64
2022-08-04T02:09:55.023Z,22.63
2022-08-04T02:11:00.981Z,22.62
2022-08-04T02:12:15.851Z,22.60
2022-08-04T02:13:22.756Z,22.59
2022-08-04T02:14:40.706Z,22.57
2022-08-04T02:15:46.680Z,22.55
2022-08-04T02:16:52.530Z,22.52
2022-08-04T02:18:00.604Z,22.50
2022-08-04T02:19:03.851Z,22.47
2022-08-04T02:20:16.659Z,22.44
2022-08-04T02:21:20.509Z,22.41
2022-08-04T02:22:25.709Z,22.38
2022-08-04T02:23:31.446Z,22.36
2022-08-04T02:24:38.006Z,22.33
2022-08-04T02:25:46.012Z,22.30
2022-08-04T02:26:50.197Z,22.27
2022-08-04T02:27:59.374Z,22.24
2022-08-04T02:29:03.554Z,22.20
2022-08-04T02:30:06.900Z,22.16
2022-08-04T02:31:28.746Z,22.12
2022-08-04T02:32:39.604Z,22.07
2022-08-04T02:33:44.231Z,22.05
2022-08-04T02:34:47.834Z,22.01
2022-08-04T02:35:54.471Z,21.98
2022-08-04T02:36:59.197Z,21.95
2022-08-04T02:38:17.102Z,21.92
2022-08-04T02:39:31.547Z,21.90
2022-08-04T02:40:51.630Z,21.87
2022-08-04T02:41:55.838Z,21.86
2022-08-04T02:42:59.360Z,21.84
2022-08-04T02:44:04.194Z,21.82
2022-08-04T02:45:07.659Z,21.80
2022-08-04T02:46:18.022Z,21.78
2022-08-04T02:47:24.563Z,21.75
2022-08-04T02:48:48.107Z,21.71
2022-08-04T02:49:51.871Z,21.67
2022-08-04T02:50:55.994Z,21.62
2022-08-04T02:51:59.953Z,21.58
2022-08-04T02:53:04.314Z,21.54
2022-08-04T02:54:15.312Z,21.50
2022-08-04T02:55:33.953Z,21.46
2022-08-04T02:56:38.838Z,21.42
2022-08-04T02:57:43.562Z,21.41
2022-08-04T02:58:49.408Z,21.38
2022-08-04T02:59:52.478Z,21.37
2022-08-04T03:00:55.391Z,21.35
2022-08-04T03:01:58.524Z,21.33
2022-08-04T03:03:20.108Z,21.29
2022-08-04T03:04:24.461Z,21.26
2022-08-04T03:05:57.501Z,21.23
2022-08-04T03:07:05.931Z,21.21
2022-08-04T03:08:28.754Z,21.18
2022-08-04T03:09:38.730Z,21.15
2022-08-04T03:10:41.599Z,21.12
2022-08-04T03:11:53.703Z,21.10
2022-08-04T03:13:14.786Z,21.08
2022-08-04T03:14:32.680Z,21.07
2022-08-04T03:15:40.636Z,21.05
2022-08-04T03:16:55.763Z,21.03
2022-08-04T03:17:58.613Z,21.01
2022-08-04T03:19:20.024Z,20.99
2022-08-04T03:20:22.956Z,20.96
2022-08-04T03:21:28.758Z,20.94
2022-08-04T03:22:31.703Z,20.92
2022-08-04T03:23:53.092Z,20.92
2022-08-04T03:25:14.643Z,20.88
2022-08-04T03:26:28.571Z,20.85
2022-08-04T03:27:41.196Z,20.83
2022-08-04T03:29:05.997Z,20.82
2022-08-04T03:30:08.936Z,20.78
2022-08-04T03:31:14.879Z,20.77
2022-08-04T03:32:36.266Z,20.75
2022-08-04T03:33:57.392Z,20.73
2022-08-04T03:35:14.556Z,20.70
2022-08-04T03:36:30.118Z,20.67
2022-08-04T03:37:49.686Z,20.65
2022-08-04T03:39:09.414Z,20.64
2022-08-04T03:40:18.161Z,20.63
2022-08-04T03:41:55.025Z,20.62
2022-08-04T03:43:57.758Z,20.61
2022-08-04T03:44:52.875Z,20.61
2022-08-04T03:45:55.793Z,20.60
2022-08-04T03:47:07.419Z,20.59
2022-08-04T03:48:29.056Z,20.58
2022-08-04T03:50:10.536Z,20.56
2022-08-04T03:51:38.212Z,20.54
2022-08-04T03:53:09.590Z,20.53
2022-08-04T03:54:28.711Z,20.51
2022-08-04T03:55:40.631Z,20.51
2022-08-04T03:57:01.743Z,20.52
2022-08-04T03:58:30.400Z,20.53
2022-08-04T03:59:36.765Z,20.52
2022-08-04T04:00:45.834Z,20.52
2022-08-04T04:02:07.493Z,20.52
2022-08-04T04:03:22.885Z,20.53
2022-08-04T04:04:32.133Z,20.54
2022-08-04T04:05:40.345Z,20.56
2022-08-04T04:07:19.512Z,20.58
2022-08-04T04:08:49.684Z,20.59
2022-08-04T04:09:57.934Z,20.61
2022-08-04T04:11:08.943Z,20.62
2022-08-04T04:12:15.238Z,20.62
2022-08-04T04:13:35.909Z,20.63
2022-08-04T04:14:50.830Z,20.64
2022-08-04T04:15:56.735Z,20.65
2022-08-04T04:16:59.610Z,20.65
2022-08-04T04:18:21.237Z,20.65
2022-08-04T04:19:44.515Z,20.66
2022-08-04T04:20:53.327Z,20.69
2022-08-04T04:22:05.390Z,20.70
2022-08-04T04:23:10.382Z,20.72
2022-08-04T04:24:13.926Z,20.74
2022-08-04T04:25:28.403Z,20.75
2022-08-04T04:26:37.191Z,20.76
2022-08-04T04:27:43.596Z,20.78
2022-08-04T04:28:52.587Z,20.81
2022-08-04T04:29:55.487Z,20.82
2022-08-04T04:31:07.100Z,20.84
2022-08-04T04:32:22.304Z,20.87
2022-08-04T04:33:33.829Z,20.92
2022-08-04T04:34:46.623Z,20.95
2022-08-04T04:35:52.197Z,20.99
2022-08-04T04:37:13.843Z,21.01
2022-08-04T04:38:25.878Z,21.05
2022-08-04T04:39:35.031Z,21.08
2022-08-04T04:40:58.243Z,21.11
2022-08-04T04:42:03.843Z,21.15
2022-08-04T04:43:13.803Z,21.18
2022-08-04T04:44:30.806Z,21.22
2022-08-04T04:45:52.598Z,21.26
2022-08-04T04:47:04.715Z,21.30
2022-08-04T04:48:26.865Z,21.34
2022-08-04T04:49:50.071Z,21.39
2022-08-04T04:51:14.513Z,21.44
2022-08-04T04:52:20.625Z,21.48
2022-08-04T04:53:27.694Z,21.50
2022-08-04T04:54:35.163Z,21.54
2022-08-04T04:55:47.974Z,21.58
2022-08-04T04:56:54.208Z,21.63
2022-08-04T04:58:00.514Z,21.68
2022-08-04T04:59:04.432Z,21.73
2022-08-04T05:00:13.084Z,21.77
2022-08-04T05:01:15.990Z,21.82
2022-08-04T05:02:37.374Z,21.87
2022-08-04T05:03:59.274Z,21.93
2022-08-04T05:05:20.304Z,21.98
2022-08-04T05:06:38.267Z,22.05
2022-08-04T05:07:58.420Z,22.10
2022-08-04T05:09:01.413Z,22.17
2022-08-04T05:10:10.918Z,22.23
2022-08-04T05:11:32.714Z,22.29
2022-08-04T05:14:33.198Z,22.35
2022-08-04T05:14:41.561Z,22.42
2022-08-04T05:15:46.714Z,22.48
2022-08-04T05:16:58.444Z,22.53
2022-08-04T05:18:02.230Z,22.57
2022-08-04T05:19:11.215Z,22.63
2022-08-04T05:20:17.044Z,22.71
2022-08-04T05:21:27.266Z,22.76
2022-08-04T05:22:36.193Z,22.82
2022-08-04T05:23:43.605Z,22.88
2022-08-04T05:24:47.908Z,22.94
2022-08-04T05:25:59.556Z,23.00
2022-08-04T05:27:05.853Z,23.10
2022-08-04T05:28:11.984Z,23.20
2022-08-04T05:29:30.919Z,23.33
2022-08-04T05:30:37.022Z,23.50
2022-08-04T05:31:42.952Z,23.61
2022-08-04T05:33:00.201Z,23.71
2022-08-04T05:34:04.512Z,23.80
2022-08-04T05:35:12.390Z,23.86
2022-08-04T05:36:32.737Z,23.92
2022-08-04T05:37:41.547Z,24.01
2022-08-04T05:38:45.046Z,24.09
2022-08-04T05:39:54.079Z,24.15
2022-08-04T05:40:57.303Z,24.19
2022-08-04T05:42:04.416Z,24.24
2022-08-04T05:43:08.239Z,24.26
2022-08-04T05:44:11.947Z,24.28
2022-08-04T05:45:15.454Z,24.31
2022-08-04T05:46:19.467Z,24.34
2022-08-04T05:47:22.854Z,24.36
2022-08-04T05:48:27.602Z,24.38
2022-08-04T05:49:31.270Z,24.40
2022-08-04T05:50:34.572Z,24.43
2022-08-04T05:51:38.866Z,24.49
2022-08-04T05:52:42.330Z,24.54
2022-08-04T05:53:47.204Z,24.57
2022-08-04T05:54:51.252Z,24.59
2022-08-04T05:55:58.735Z,24.58
2022-08-04T05:57:05.856Z,24.67
2022-08-04T05:58:09.463Z,24.85
2022-08-04T05:59:12.812Z,25.02
2022-08-04T06:00:39.861Z,25.16
2022-08-04T06:01:55.066Z,25.23
2022-08-04T06:03:01.219Z,25.24
2022-08-04T06:04:11.356Z,25.27
2022-08-04T06:05:17.769Z,25.31
2022-08-04T06:06:21.592Z,25.32
2022-08-04T06:07:26.555Z,25.33
2022-08-04T06:08:30.205Z,25.35
2022-08-04T06:09:33.246Z,25.38
2022-08-04T06:10:38.806Z,25.42
2022-08-04T06:12:03.740Z,25.46
2022-08-04T06:13:07.555Z,25.50
2022-08-04T06:14:13.388Z,25.52
2022-08-04T06:15:18.520Z,25.54
2022-08-04T06:16:29.841Z,25.53
2022-08-04T06:19:56.249Z,25.53
2022-08-04T06:20:00.959Z,25.58
2022-08-04T06:20:29.884Z,25.59
2022-08-04T06:21:39.527Z,25.61
2022-08-04T06:22:43.512Z,25.63
2022-08-04T06:23:56.157Z,25.67
2022-08-04T06:25:05.606Z,25.74
2022-08-04T06:26:11.534Z,25.82
2022-08-04T06:27:15.693Z,25.88
2022-08-04T06:28:19.568Z,25.92
2022-08-04T06:29:35.791Z,25.95
2022-08-04T06:30:40.410Z,26.01
2022-08-04T06:32:29.808Z,26.06
2022-08-04T06:33:33.745Z,26.12
2022-08-04T06:34:58.840Z,26.15
2022-08-04T06:36:03.119Z,26.15
2022-08-04T06:37:06.792Z,26.16
2022-08-04T06:38:09.972Z,26.19
2022-08-04T06:39:16.085Z,26.22
2022-08-04T06:40:31.569Z,26.25
2022-08-04T06:41:36.442Z,26.29
2022-08-04T06:43:00.797Z,26.31
2022-08-04T06:44:06.011Z,26.33
2022-08-04T06:45:09.995Z,26.37
2022-08-04T06:46:14.333Z,26.40
2022-08-04T06:47:21.640Z,26.42
2022-08-04T06:48:33.312Z,26.44
2022-08-04T06:49:55.091Z,26.47
2022-08-04T06:51:32.752Z,26.51
2022-08-04T06:52:24.963Z,26.57
2022-08-04T06:53:28.711Z,26.61
2022-08-04T06:54:33.022Z,26.66
2022-08-04T06:55:36.087Z,26.70
2022-08-04T06:56:39.564Z,26.74
2022-08-04T06:57:44.057Z,26.76
2022-08-04T06:58:47.589Z,26.77
2022-08-04T07:00:01.505Z,26.79
2022-08-04T07:01:05.289Z,26.80
2022-08-04T07:02:14.158Z,26.82
2022-08-04T07:03:19.595Z,26.84
2022-08-04T07:04:22.563Z,26.86
2022-08-04T07:05:25.514Z,26.89
2022-08-04T07:06:28.445Z,26.92
2022-08-04T07:07:34.048Z,26.95
2022-08-04T07:08:40.283Z,27.00
2022-08-04T07:09:43.509Z,27.05
2022-08-04T07:10:46.690Z,27.10
2022-08-04T07:11:49.691Z,27.14
2022-08-04T07:12:54.063Z,27.19
2022-08-04T07:13:57.555Z,27.25
2022-08-04T07:15:01.283Z,27.30
2022-08-04T07:16:05.575Z,27.33
2022-08-04T07:17:09.330Z,27.37
2022-08-04T07:18:12.436Z,27.42
2022-08-04T07:19:18.858Z,27.45
2022-08-04T07:20:33.864Z,27.50
2022-08-04T07:21:39.555Z,27.57
2022-08-04T07:22:43.265Z,27.62
2022-08-04T07:23:46.315Z,27.65
2022-08-04T07:24:54.201Z,27.68
2022-08-04T07:26:11.847Z,27.73
2022-08-04T07:27:17.193Z,27.77
2022-08-04T07:28:29.868Z,27.81
2022-08-04T07:29:33.467Z,27.85
2022-08-04T07:30:37.151Z,27.90
2022-08-04T07:31:40.222Z,27.95
2022-08-04T07:32:45.213Z,28.00
2022-08-04T07:33:48.426Z,28.06
2022-08-04T07:36:05.625Z,28.12
2022-08-04T07:36:50.448Z,28.19
2022-08-04T07:37:54.013Z,28.24
2022-08-04T07:38:56.968Z,28.28
2022-08-04T07:40:01.180Z,28.35
2022-08-04T07:41:35.305Z,28.39
2022-08-04T07:42:29.221Z,28.46
2022-08-04T07:43:32.384Z,28.51
2022-08-04T07:44:35.534Z,28.56
2022-08-04T07:45:38.492Z,28.61
2022-08-04T07:46:41.884Z,28.66
2022-08-04T07:48:04.673Z,28.70
2022-08-04T07:49:08.528Z,28.71
2022-08-04T07:50:12.531Z,28.74
2022-08-04T07:51:16.381Z,28.77
2022-08-04T07:52:20.754Z,28.79
2022-08-04T07:53:52.972Z,28.82
2022-08-04T07:54:50.505Z,28.84
2022-08-04T07:55:53.663Z,28.88
2022-08-04T07:56:56.858Z,28.92
2022-08-04T07:58:00.503Z,28.95
2022-08-04T07:59:03.604Z,29.00
2022-08-04T08:00:07.967Z,29.04
2022-08-04T08:01:14.599Z,29.10
2022-08-04T08:02:19.468Z,29.16
2022-08-04T08:03:23.904Z,29.22
2022-08-04T08:04:27.258Z,29.26
2022-08-04T08:05:30.406Z,29.31
2022-08-04T08:06:39.797Z,29.36
2022-08-04T08:07:50.898Z,29.41
2022-08-04T08:08:58.422Z,29.43
2022-08-04T08:10:01.375Z,29.46
2022-08-04T08:11:04.562Z,29.49
2022-08-04T08:12:38.286Z,29.54
2022-08-04T08:13:33.279Z,29.60
2022-08-04T08:14:37.139Z,29.64
2022-08-04T08:15:40.472Z,29.69
2022-08-04T08:16:43.984Z,29.73
2022-08-04T08:17:57.895Z,29.74
2022-08-04T08:19:04.110Z,29.77
2022-08-04T08:20:09.939Z,29.80
2022-08-04T08:21:13.112Z,29.82
2022-08-04T08:22:16.117Z,29.85
2022-08-04T08:23:19.834Z,29.88
2022-08-04T08:24:24.921Z,29.91
2022-08-04T08:25:29.691Z,29.97
2022-08-04T08:26:32.812Z,30.02
2022-08-04T08:27:37.245Z,30.05
2022-08-04T08:28:41.319Z,30.07
2022-08-04T08:29:47.046Z,30.10
2022-08-04T08:30:52.660Z,30.15
2022-08-04T08:32:01.447Z,30.19
2022-08-04T08:33:06.971Z,30.23
2022-08-04T08:34:11.455Z,30.24
2022-08-04T08:35:17.738Z,30.26
2022-08-04T08:36:27.579Z,30.29
2022-08-04T08:37:33.790Z,30.31
2022-08-04T08:38:40.340Z,30.33
2022-08-04T08:39:50.129Z,30.36
2022-08-04T08:40:56.491Z,30.40
2022-08-04T08:42:11.462Z,30.45
2022-08-04T08:44:04.442Z,30.49
2022-08-04T08:45:10.923Z,30.53
2022-08-04T08:46:45.563Z,30.54
2022-08-04T08:48:05.725Z,30.55
2022-08-04T08:49:14.023Z,30.55
2022-08-04T08:50:48.792Z,30.57
2022-08-04T08:51:59.933Z,30.59
2022-08-04T08:53:22.858Z,30.59
2022-08-04T08:54:40.688Z,30.60
2022-08-04T08:55:55.661Z,30.62
2022-08-04T08:57:01.499Z,30.63
2022-08-04T08:58:16.950Z,30.64
2022-08-04T08:59:38.376Z,30.69
2022-08-04T09:00:59.321Z,30.76
2022-08-04T09:02:21.130Z,30.84
2022-08-04T09:03:24.000Z,30.87
2022-08-04T09:04:40.261Z,30.92
2022-08-04T09:05:51.096Z,30.98
2022-08-04T09:07:07.385Z,31.02
2022-08-04T09:08:22.601Z,31.04
2022-08-04T09:09:34.415Z,31.07
2022-08-04T09:10:42.304Z,31.10
2022-08-04T09:11:56.181Z,31.13
2022-08-04T09:13:01.918Z,31.16
2022-08-04T09:14:20.628Z,31.19
2022-08-04T09:15:23.599Z,31.23
2022-08-04T09:16:38.963Z,31.26
2022-08-04T09:17:45.534Z,31.30
2022-08-04T09:18:48.582Z,31.35
2022-08-04T09:19:59.059Z,31.41
2022-08-04T09:21:25.001Z,31.45
2022-08-04T09:22:34.891Z,31.48
2022-08-04T09:23:43.703Z,31.50
2022-08-04T09:24:46.778Z,31.53
2022-08-04T09:26:25.270Z,31.56
2022-08-04T09:27:35.627Z,31.65
2022-08-04T09:28:54.098Z,31.71
2022-08-04T09:30:08.278Z,31.75
2022-08-04T09:31:14.645Z,31.79
2022-08-04T09:32:25.521Z,31.83
2022-08-04T09:33:44.584Z,31.86
2022-08-04T09:35:12.001Z,31.89
2022-08-04T09:36:26.768Z,31.97
2022-08-04T09:37:45.748Z,32.03
2022-08-04T09:38:58.578Z,32.03
2022-08-04T09:40:01.856Z,32.00
2022-08-04T09:41:26.221Z,32.00
2022-08-04T09:42:51.356Z,32.04
2022-08-04T09:44:48.869Z,32.05
2022-08-04T09:45:43.185Z,32.01
2022-08-04T09:46:52.578Z,31.99
2022-08-04T09:48:25.585Z,31.96
2022-08-04T09:49:54.506Z,31.93
2022-08-04T09:50:59.306Z,31.93
2022-08-04T09:52:11.773Z,31.94
2022-08-04T09:53:27.958Z,31.96
2022-08-04T09:54:42.810Z,32.01
2022-08-04T09:55:54.610Z,32.04
2022-08-04T09:57:16.859Z,32.08
2022-08-04T09:58:27.209Z,32.14
2022-08-04T09:59:36.187Z,32.22
2022-08-04T10:00:47.031Z,32.30
2022-08-04T10:01:58.899Z,32.35
2022-08-04T10:03:04.567Z,32.38
2022-08-04T10:04:12.529Z,32.41
2022-08-04T10:05:17.163Z,32.39
2022-08-04T10:06:34.165Z,32.38
2022-08-04T10:08:13.634Z,32.37
2022-08-04T10:09:50.354Z,32.38
2022-08-04T10:11:11.455Z,32.40
2022-08-04T10:12:23.595Z,32.46
2022-08-04T10:13:53.036Z,32.52
2022-08-04T10:15:05.190Z,32.57
2022-08-04T10:16:10.895Z,32.57
2022-08-04T10:17:26.373Z,32.60
2022-08-04T10:18:48.391Z,32.66
2022-08-04T10:19:57.383Z,32.73
2022-08-04T10:21:13.481Z,32.78
2022-08-04T10:22:50.009Z,32.82
2022-08-04T10:24:07.654Z,32.91
2022-08-04T10:25:37.652Z,32.95
2022-08-04T10:26:58.573Z,33.01
2022-08-04T10:28:05.379Z,33.03
2022-08-04T10:29:14.518Z,33.05
2022-08-04T10:30:19.120Z,33.10
2022-08-04T10:31:28.962Z,33.16
2022-08-04T10:32:43.080Z,33.23
2022-08-04T10:33:58.328Z,33.29
2022-08-04T10:35:20.194Z,33.30
2022-08-04T10:36:27.696Z,33.28
2022-08-04T10:37:54.628Z,33.28
2022-08-04T10:39:43.749Z,33.30
2022-08-04T10:40:47.942Z,33.34
2022-08-04T10:42:06.243Z,33.40
2022-08-04T10:43:22.394Z,33.46
2022-08-04T10:44:42.322Z,33.52
2022-08-04T10:45:57.757Z,33.56
2022-08-04T10:47:04.055Z,33.59
2022-08-04T10:48:07.107Z,33.62
2022-08-04T10:49:16.829Z,33.68
2022-08-04T10:50:26.639Z,33.75
2022-08-04T10:51:58.876Z,33.79
2022-08-04T10:53:07.816Z,33.87
2022-08-04T10:54:15.335Z,33.94
2022-08-04T10:55:20.100Z,34.01
2022-08-04T10:56:30.175Z,34.05
2022-08-04T10:57:36.166Z,34.07
2022-08-04T10:59:05.224Z,34.09
2022-08-04T11:00:19.837Z,34.11
2022-08-04T11:02:01.954Z,34.14
2022-08-04T11:03:09.299Z,34.19
2022-08-04T11:04:27.179Z,34.25
2022-08-04T11:05:46.807Z,34.34
2022-08-04T11:06:49.994Z,34.40
2022-08-04T11:08:11.439Z,34.43
2022-08-04T11:09:17.377Z,34.47
2022-08-04T11:10:21.873Z,34.49
2022-08-04T11:11:56.979Z,34.52
2022-08-04T11:12:58.281Z,34.55
2022-08-04T11:14:09.094Z,34.58
2022-08-04T11:15:14.290Z,34.62
2022-08-04T11:16:19.566Z,34.61
2022-08-04T11:17:33.671Z,34.56
2022-08-04T11:18:55.622Z,34.49
2022-08-04T11:20:18.190Z,34.46
2022-08-04T11:21:25.227Z,34.48
2022-08-04T11:22:28.920Z,34.50
2022-08-04T11:23:36.833Z,34.54
2022-08-04T11:24:52.739Z,34.55
2022-08-04T11:26:08.028Z,34.60
2022-08-04T11:27:23.791Z,34.70
2022-08-04T11:28:30.680Z,34.75
2022-08-04T11:30:14.049Z,34.79
2022-08-04T11:31:20.393Z,34.94
2022-08-04T11:32:35.991Z,35.11
2022-08-04T11:34:11.177Z,35.31
2022-08-04T11:35:20.199Z,35.44
2022-08-04T11:36:32.153Z,35.49
2022-08-04T11:37:50.542Z,35.57
2022-08-04T11:38:59.319Z,35.71
2022-08-04T11:40:23.137Z,35.83
2022-08-04T11:41:47.103Z,36.03
2022-08-04T11:42:56.784Z,36.18
2022-08-04T11:44:05.628Z,36.28
2022-08-04T11:45:13.492Z,36.44
2022-08-04T11:46:23.274Z,36.57
2022-08-04T11:47:30.807Z,36.67
2022-08-04T11:48:40.771Z,36.83
2022-08-04T11:49:56.958Z,36.94
2022-08-04T11:51:06.809Z,37.05
2022-08-04T11:52:12.675Z,37.18
2022-08-04T11:53:22.978Z,37.33
2022-08-04T11:54:26.076Z,37.45
2022-08-04T11:55:30.487Z,37.58
2022-08-04T11:56:37.143Z,37.74
2022-08-04T11:57:41.242Z,37.82
2022-08-04T11:58:50.465Z,37.88
2022-08-04T11:59:56.452Z,37.93
2022-08-04T12:01:10.720Z,37.94
2022-08-04T12:02:39.973Z,37.95
2022-08-04T12:03:46.560Z,38.02
2022-08-04T12:05:08.258Z,38.10
2022-08-04T12:06:17.970Z,38.21
2022-08-04T12:07:30.994Z,38.29
2022-08-04T12:08:53.123Z,38.25
2022-08-04T12:10:04.272Z,38.35
2022-08-04T12:11:25.089Z,38.40
2022-08-04T12:12:50.790Z,38.47
2022-08-04T12:13:57.432Z,38.58
2022-08-04T12:15:05.915Z,38.65
2022-08-04T12:16:14.778Z,38.74
2022-08-04T12:17:36.381Z,38.79
2022-08-04T12:19:01.583Z,38.88
2022-08-04T12:20:31.639Z,39.10
2022-08-04T12:21:45.030Z,39.29
2022-08-04T12:22:58.828Z,39.57
2022-08-04T12:24:05.744Z,39.72
2022-08-04T12:25:09.702Z,39.79
2022-08-04T12:26:20.942Z,39.85
2022-08-04T12:27:33.679Z,39.90
2022-08-04T12:29:08.676Z,40.02
2022-08-04T12:31:01.712Z,40.20
2022-08-04T12:31:29.735Z,40.34
2022-08-04T12:32:37.817Z,40.43
2022-08-04T12:34:04.220Z,40.54
2022-08-04T12:35:18.821Z,40.72
2022-08-04T12:36:38.089Z,40.93
2022-08-04T12:37:50.826Z,41.07
2022-08-04T12:39:03.392Z,41.15
2022-08-04T12:40:28.198Z,41.31
2022-08-04T12:41:36.546Z,41.49
2022-08-04T12:42:39.438Z,41.56
2022-08-04T12:44:05.535Z,41.61
2022-08-04T12:45:10.239Z,41.60
2022-08-04T12:46:22.319Z,41.59
2022-08-04T12:47:29.063Z,41.49
2022-08-04T12:48:33.489Z,41.61
2022-08-04T12:49:39.746Z,41.84
2022-08-04T12:50:47.141Z,42.03
2022-08-04T12:52:06.139Z,42.22
2022-08-04T12:53:31.315Z,42.52
2022-08-04T12:54:36.956Z,42.78
2022-08-04T12:55:45.163Z,42.89
2022-08-04T12:57:07.636Z,42.99
2022-08-04T12:58:13.299Z,43.21
2022-08-04T12:59:20.397Z,43.49
2022-08-04T13:00:29.785Z,43.72
2022-08-04T13:02:09.937Z,43.88
2022-08-04T13:03:00.734Z,44.22
2022-08-04T13:04:16.944Z,44.40
2022-08-04T13:05:21.158Z,44.49
2022-08-04T13:06:28.726Z,44.54
2022-08-04T13:07:44.085Z,44.53
2022-08-04T13:08:47.885Z,44.58
2022-08-04T13:09:51.844Z,44.61
2022-08-04T13:10:57.754Z,44.63
2022-08-04T13:12:03.153Z,44.60
2022-08-04T13:13:12.303Z,44.60
2022-08-04T13:14:26.567Z,44.65
2022-08-04T13:15:31.159Z,44.75
2022-08-04T13:16:34.361Z,44.86
2022-08-04T13:18:03.517Z,44.96
2022-08-04T13:19:08.787Z,45.11
2022-08-04T13:20:14.001Z,45.26
2022-08-04T13:21:23.255Z,45.42
2022-08-04T13:24:22.018Z,45.70
2022-08-04T13:26:44.109Z,45.57
2022-08-04T13:27:04.185Z,45.54
2022-08-04T13:28:12.878Z,45.50
2022-08-04T13:29:17.506Z,45.61
2022-08-04T13:30:22.812Z,45.70
2022-08-04T13:30:24.153Z,45.56
2022-08-04T13:31:27.523Z,45.84
2022-08-04T13:32:39.298Z,46.04
2022-08-04T13:33:44.843Z,46.17
2022-08-04T13:34:52.309Z,46.38
2022-08-04T13:35:57.043Z,46.46
2022-08-04T13:37:01.673Z,46.37
2022-08-04T13:38:08.768Z,46.23
2022-08-04T13:39:19.971Z,46.13
2022-08-04T13:40:24.557Z,46.14
2022-08-04T13:41:34.824Z,46.18
2022-08-04T13:42:38.718Z,46.16
2022-08-04T13:44:16.295Z,46.08
2022-08-04T13:45:07.887Z,46.02
2022-08-04T13:46:14.368Z,46.02
2022-08-04T13:47:34.227Z,46.04
2022-08-04T13:48:38.226Z,46.18
2022-08-04T13:49:54.632Z,46.24
2022-08-04T13:51:08.219Z,46.15
2022-08-04T13:52:11.947Z,46.05
2022-08-04T13:53:17.774Z,46.01
2022-08-04T13:54:25.061Z,46.05
2022-08-04T13:55:31.962Z,46.17
2022-08-04T13:56:44.941Z,46.31
2022-08-04T13:57:59.694Z,46.35
2022-08-04T13:59:04.211Z,46.43
2022-08-04T14:00:09.258Z,46.52
2022-08-04T14:01:35.827Z,46.56
2022-08-04T14:02:58.971Z,46.81
2022-08-04T14:04:12.510Z,46.70
2022-08-04T14:05:29.473Z,46.63
2022-08-04T14:06:37.459Z,46.72
2022-08-04T14:07:43.442Z,46.83
2022-08-04T14:08:50.686Z,46.86
2022-08-04T14:10:02.525Z,46.95
2022-08-04T14:11:06.207Z,46.88
2022-08-04T14:12:37.854Z,46.81
2022-08-04T14:13:41.357Z,46.89
2022-08-04T14:14:46.927Z,47.09
2022-08-04T14:16:01.098Z,47.22
2022-08-04T14:17:19.722Z,47.26
2022-08-04T14:18:28.090Z,47.38
2022-08-04T14:19:49.014Z,47.47
2022-08-04T14:21:06.288Z,47.43
2022-08-04T14:22:09.484Z,47.14
2022-08-04T14:23:18.079Z,46.88
2022-08-04T14:24:25.358Z,46.53
2022-08-04T14:25:35.704Z,46.38
2022-08-04T14:26:39.229Z,46.33
2022-08-04T14:27:45.349Z,46.32
2022-08-04T14:29:08.421Z,46.34
2022-08-04T14:30:21.662Z,46.34
2022-08-04T14:31:30.372Z,46.45
2022-08-04T14:32:34.098Z,46.59
2022-08-04T14:34:01.142Z,46.63
2022-08-04T14:35:10.331Z,46.71
2022-08-04T14:36:15.753Z,46.51
2022-08-04T14:37:20.586Z,46.28
2022-08-04T14:38:24.239Z,46.13
2022-08-04T14:39:37.263Z,45.90
2022-08-04T14:40:42.113Z,45.69
2022-08-04T14:41:46.467Z,45.64
2022-08-04T14:42:55.212Z,45.76
2022-08-04T14:44:00.849Z,45.95
2022-08-04T14:45:06.164Z,46.08
2022-08-04T14:46:10.507Z,45.93
2022-08-04T14:47:13.626Z,45.82
2022-08-04T14:48:19.666Z,45.68
2022-08-04T14:49:23.018Z,45.59
2022-08-04T14:50:35.024Z,45.61
2022-08-04T14:51:40.452Z,45.73
2022-08-04T14:52:43.366Z,45.85
2022-08-04T14:53:47.470Z,46.05
2022-08-04T14:54:50.692Z,46.27
2022-08-04T14:55:56.417Z,46.26
2022-08-04T14:57:04.303Z,46.12
2022-08-04T14:58:35.265Z,46.17
2022-08-04T15:00:00.546Z,46.19
2022-08-04T15:01:09.817Z,46.32
2022-08-04T15:02:15.093Z,46.27
2022-08-04T15:03:19.397Z,46.37
2022-08-04T15:04:23.724Z,46.40
2022-08-04T15:05:55.577Z,46.41
2022-08-04T15:06:53.047Z,46.35
2022-08-04T15:07:56.357Z,46.18
2022-08-04T15:09:01.702Z,46.19
2022-08-04T15:10:04.955Z,46.03
2022-08-04T15:11:08.198Z,45.85
2022-08-04T15:12:11.233Z,45.76
2022-08-04T15:13:14.519Z,45.74
2022-08-04T15:14:37.360Z,45.79
2022-08-04T15:15:41.464Z,45.88
2022-08-04T15:16:54.103Z,45.85
2022-08-04T15:17:58.403Z,45.81
2022-08-04T15:19:02.044Z,45.61
2022-08-04T15:20:05.236Z,45.36